createdAt,value
2019-03-27T00:00:20.050Z,25.33
2019-03-27T00:02:53.248Z,21.43
2019-03-27T00:05:26.437Z,19.20
2019-03-27T00:07:59.645Z,16.00
2019-03-27T00:10:32.852Z,20.43
2019-03-27T00:13:06.028Z,18.57
2019-03-27T00:15:39.221Z,20.90
2019-03-27T00:18:12.395Z,20.13
2019-03-27T00:20:45.586Z,17.47
2019-03-27T00:23:18.783Z,19.00
2019-03-27T00:25:51.984Z,27.47
2019-03-27T00:28:25.193Z,22.40
2019-03-27T00:30:58.476Z,24.70
2019-03-27T00:33:31.651Z,24.77
2019-03-27T00:36:04.857Z,19.63
2019-03-27T00:38:38.030Z,23.33
2019-03-27T00:41:11.246Z,23.07
2019-03-27T00:43:44.418Z,20.70
2019-03-27T00:46:17.627Z,20.10
2019-03-27T00:48:50.801Z,21.43
2019-03-27T00:51:23.973Z,23.63
2019-03-27T00:53:57.147Z,27.97
2019-03-27T00:56:30.341Z,20.60
2019-03-27T00:59:03.507Z,23.70
2019-03-27T01:01:36.689Z,22.00
2019-03-27T01:04:09.864Z,17.20
2019-03-27T01:06:43.035Z,20.93
2019-03-27T01:09:16.253Z,17.43
2019-03-27T01:11:49.440Z,26.23
2019-03-27T01:14:22.614Z,26.20
2019-03-27T01:16:55.835Z,26.77
2019-03-27T01:19:29.092Z,27.93
2019-03-27T01:22:02.267Z,30.67
2019-03-27T01:24:35.432Z,24.60
2019-03-27T01:27:08.645Z,26.13
2019-03-27T01:29:41.896Z,26.73
2019-03-27T01:32:15.154Z,29.63
2019-03-27T01:34:48.318Z,24.23
2019-03-27T01:37:21.599Z,27.20
2019-03-27T01:39:54.818Z,30.73
2019-03-27T01:42:28.027Z,22.53
2019-03-27T01:45:01.199Z,28.27
2019-03-27T01:47:34.379Z,26.77
2019-03-27T01:50:07.628Z,28.40
2019-03-27T01:52:40.811Z,29.00
2019-03-27T01:55:14.013Z,26.10
2019-03-27T01:57:47.197Z,35.10
2019-03-27T02:00:20.359Z,33.07
2019-03-27T02:02:53.575Z,25.37
2019-03-27T02:05:26.755Z,30.50
2019-03-27T02:07:59.957Z,26.80
2019-03-27T02:10:33.152Z,25.23
2019-03-27T02:13:06.433Z,24.93
2019-03-27T02:15:39.643Z,25.73
2019-03-27T02:18:12.835Z,24.70
2019-03-27T02:20:46.004Z,26.07
2019-03-27T02:23:19.188Z,28.13
2019-03-27T02:25:52.363Z,32.53
2019-03-27T02:28:25.598Z,40.47
2019-03-27T02:30:58.779Z,33.10
2019-03-27T02:33:31.972Z,38.17
2019-03-27T02:36:05.367Z,30.07
2019-03-27T02:38:38.570Z,35.00
2019-03-27T02:41:11.756Z,37.20
2019-03-27T02:43:44.939Z,40.30
2019-03-27T02:46:25.051Z,36.63
2019-03-27T02:48:53.413Z,29.60
2019-03-27T02:58:35.865Z,38.50
2019-03-27T03:01:09.043Z,31.20
2019-03-27T03:03:42.214Z,32.57
2019-03-27T03:06:15.381Z,35.50
2019-03-27T03:12:02.846Z,32.50
2019-03-27T03:14:36.014Z,36.60
2019-03-27T03:17:09.191Z,38.10
2019-03-27T03:19:42.357Z,34.67
2019-03-27T03:22:15.513Z,36.90
2019-03-27T03:24:48.741Z,39.60
2019-03-27T03:27:22.017Z,33.60
2019-03-27T03:29:55.234Z,38.30
2019-03-27T03:32:28.409Z,30.23
2019-03-27T03:35:01.839Z,30.67
2019-03-27T03:37:35.082Z,31.73
2019-03-27T03:40:09.327Z,30.03
2019-03-27T03:42:42.545Z,32.43
2019-03-27T03:45:15.843Z,38.47
2019-03-27T03:47:49.063Z,37.53
2019-03-27T03:50:37.601Z,37.27
2019-03-27T03:53:12.391Z,34.83
2019-03-27T03:55:45.625Z,26.77
2019-03-27T03:58:18.839Z,44.37
2019-03-27T04:00:52.000Z,35.47
2019-03-27T04:03:25.158Z,37.33
2019-03-27T04:05:58.346Z,30.77
2019-03-27T04:08:31.500Z,32.23
2019-03-27T04:11:04.706Z,28.97
2019-03-27T04:13:37.950Z,33.97
2019-03-27T04:16:11.124Z,31.30
2019-03-27T04:18:44.295Z,31.47
2019-03-27T04:21:17.465Z,38.77
2019-03-27T04:23:50.622Z,47.27
2019-03-27T04:26:23.872Z,33.93
2019-03-27T04:28:57.027Z,37.77
2019-03-27T04:31:30.191Z,45.13
2019-03-27T04:34:03.445Z,39.07
2019-03-27T04:36:36.631Z,39.43
2019-03-27T04:39:09.802Z,40.83
2019-03-27T04:41:43.008Z,43.17
2019-03-27T04:44:16.183Z,43.93
2019-03-27T04:46:49.674Z,45.23
2019-03-27T04:49:22.850Z,47.17
2019-03-27T04:51:56.027Z,37.37
2019-03-27T04:54:29.254Z,41.70
2019-03-27T04:57:02.426Z,37.40
2019-03-27T04:59:35.586Z,38.53
2019-03-27T05:02:08.761Z,36.83
2019-03-27T05:04:41.922Z,41.63
2019-03-27T05:07:15.118Z,47.57
2019-03-27T05:09:48.318Z,36.57
2019-03-27T05:12:21.490Z,41.67
2019-03-27T05:14:54.670Z,42.17
2019-03-27T05:17:27.844Z,45.63
2019-03-27T05:20:01.003Z,49.40
2019-03-27T05:22:34.177Z,43.83
2019-03-27T05:25:07.421Z,43.37
2019-03-27T05:27:40.593Z,44.27
2019-03-27T05:30:17.050Z,48.00
2019-03-27T05:32:50.217Z,39.77
2019-03-27T05:35:23.384Z,44.53
2019-03-27T05:37:56.661Z,37.73
2019-03-27T05:40:29.826Z,41.73
2019-03-27T05:43:03.039Z,42.90
2019-03-27T05:45:36.203Z,46.77
2019-03-27T05:48:09.388Z,33.13
2019-03-27T05:50:42.574Z,47.47
2019-03-27T05:53:16.014Z,53.40
2019-03-27T05:55:49.174Z,41.73
2019-03-27T05:58:22.539Z,42.20
2019-03-27T06:00:55.722Z,44.90
2019-03-27T06:03:28.891Z,50.60
2019-03-27T06:06:02.176Z,45.87
2019-03-27T06:08:35.353Z,44.17
2019-03-27T06:11:08.526Z,48.20
2019-03-27T06:13:41.690Z,50.50
2019-03-27T06:16:14.897Z,49.10
2019-03-27T06:18:48.099Z,47.83
2019-03-27T06:21:21.254Z,43.40
2019-03-27T06:27:09.199Z,53.83
2019-03-27T06:29:42.465Z,40.60
2019-03-27T06:32:15.694Z,57.73
2019-03-27T06:34:48.898Z,51.63
2019-03-27T06:37:22.063Z,56.33
2019-03-27T06:39:55.252Z,53.43
2019-03-27T06:42:28.457Z,44.40
2019-03-27T06:45:01.742Z,42.00
2019-03-27T06:47:34.947Z,51.27
2019-03-27T06:50:08.127Z,50.70
2019-03-27T06:52:41.318Z,45.13
2019-03-27T06:55:14.525Z,61.47
2019-03-27T06:57:47.717Z,56.00
2019-03-27T07:00:32.254Z,51.13
2019-03-27T07:03:06.096Z,51.87
2019-03-27T07:05:39.291Z,51.50
2019-03-27T07:08:12.525Z,55.33
2019-03-27T07:10:45.724Z,55.50
2019-03-27T07:13:18.904Z,44.30
2019-03-27T07:15:52.119Z,56.30
2019-03-27T07:18:25.381Z,60.77
2019-03-27T07:20:58.565Z,65.30
2019-03-27T07:23:31.746Z,62.87
2019-03-27T07:26:04.985Z,60.27
2019-03-27T07:28:38.162Z,57.47
2019-03-27T07:31:11.370Z,59.13
2019-03-27T07:33:44.546Z,55.50
2019-03-27T07:36:17.753Z,51.87
2019-03-27T07:38:50.940Z,57.20
2019-03-27T07:41:24.133Z,66.40
2019-03-27T07:43:57.431Z,56.70
2019-03-27T07:46:30.622Z,53.70
2019-03-27T07:49:03.810Z,50.03
2019-03-27T07:51:37.009Z,54.57
2019-03-27T07:54:10.373Z,45.90
2019-03-27T07:56:44.212Z,56.87
2019-03-27T07:59:17.804Z,59.87
2019-03-27T08:01:50.986Z,58.00
2019-03-27T08:04:24.622Z,65.17
2019-03-27T08:06:57.836Z,59.77
2019-03-27T08:09:31.030Z,62.40
2019-03-27T08:12:04.231Z,61.90
2019-03-27T08:14:37.423Z,62.57
2019-03-27T08:17:12.140Z,58.77
2019-03-27T08:19:45.318Z,64.30
2019-03-27T08:22:18.503Z,62.53
2019-03-27T08:24:51.674Z,58.03
2019-03-27T08:27:24.853Z,59.57
2019-03-27T08:29:58.041Z,70.30
2019-03-27T08:32:31.267Z,69.73
2019-03-27T08:35:05.126Z,76.70
2019-03-27T08:37:37.767Z,70.93
2019-03-27T08:40:11.175Z,59.37
2019-03-27T08:42:44.368Z,74.37
2019-03-27T08:45:17.911Z,62.87
2019-03-27T08:47:53.423Z,59.57
2019-03-27T08:50:26.573Z,59.97
2019-03-27T08:52:59.349Z,50.13
2019-03-27T08:55:32.544Z,50.77
2019-03-27T08:58:05.721Z,54.27
2019-03-27T09:00:48.256Z,43.07
2019-03-27T09:03:21.902Z,43.20
2019-03-27T09:05:55.088Z,54.60
2019-03-27T09:08:28.273Z,50.57
2019-03-27T09:11:04.486Z,50.57
2019-03-27T09:13:36.375Z,57.03
2019-03-27T09:16:09.551Z,56.03
2019-03-27T09:18:42.738Z,57.47
2019-03-27T09:21:15.934Z,61.47
2019-03-27T09:23:49.124Z,51.53
2019-03-27T09:26:22.286Z,40.80
2019-03-27T09:28:55.465Z,51.67
2019-03-27T09:31:28.671Z,51.03
2019-03-27T09:34:01.859Z,46.97
2019-03-27T09:36:35.025Z,56.57
2019-03-27T09:39:09.439Z,53.97
2019-03-27T09:41:42.615Z,45.13
2019-03-27T09:44:15.794Z,50.97
2019-03-27T09:46:49.018Z,45.07
2019-03-27T09:49:22.207Z,37.73
2019-03-27T09:51:55.377Z,41.13
2019-03-27T09:54:28.622Z,44.13
2019-03-27T09:57:01.798Z,32.40
2019-03-27T09:59:34.981Z,32.37
2019-03-27T10:02:08.160Z,37.17
2019-03-27T10:04:41.345Z,34.47
2019-03-27T10:07:14.521Z,29.80
2019-03-27T10:09:50.325Z,37.03
2019-03-27T10:12:22.710Z,30.70
2019-03-27T10:14:55.912Z,33.93
2019-03-27T10:17:29.142Z,32.07
2019-03-27T10:20:03.776Z,40.87
2019-03-27T10:22:37.400Z,27.00
2019-03-27T10:25:10.617Z,30.23
2019-03-27T10:27:43.790Z,31.20
2019-03-27T10:30:17.010Z,31.43
2019-03-27T10:32:50.196Z,33.83
2019-03-27T10:35:23.385Z,34.60
2019-03-27T10:37:56.594Z,32.27
2019-03-27T10:40:29.786Z,32.57
2019-03-27T10:43:02.974Z,33.03
2019-03-27T10:45:36.173Z,25.67
2019-03-27T10:48:09.374Z,19.13
2019-03-27T10:50:42.554Z,22.73
2019-03-27T10:53:15.951Z,22.13
2019-03-27T10:55:49.139Z,25.03
2019-03-27T10:58:22.306Z,23.63
2019-03-27T11:00:55.495Z,21.90
2019-03-27T11:03:28.667Z,25.37
2019-03-27T11:06:01.850Z,22.50
2019-03-27T11:08:35.019Z,20.93
2019-03-27T11:11:08.226Z,15.83
2019-03-27T11:13:43.125Z,19.23
2019-03-27T11:16:16.326Z,11.70
2019-03-27T11:18:49.494Z,10.47
2019-03-27T11:21:22.677Z,15.13
2019-03-27T11:23:55.860Z,13.30
2019-03-27T11:26:29.046Z,13.93
2019-03-27T11:29:02.223Z,16.20
2019-03-27T11:31:35.414Z,16.17
2019-03-27T11:34:09.389Z,14.53
2019-03-27T11:36:42.672Z,13.47
2019-03-27T11:39:15.860Z,10.53
2019-03-27T11:41:49.035Z,10.90
2019-03-27T11:44:22.221Z,11.83
2019-03-27T11:46:55.402Z,14.17
2019-03-27T11:49:28.592Z,18.23
2019-03-27T11:52:01.784Z,11.10
2019-03-27T11:54:35.078Z,14.63
2019-03-27T11:57:08.263Z,12.00
2019-03-27T11:59:53.424Z,11.33
2019-03-27T12:02:16.418Z,11.87
2019-03-27T12:04:49.590Z,10.23
2019-03-27T12:07:22.782Z,12.43
2019-03-27T12:09:55.952Z,13.83
2019-03-27T12:12:29.227Z,11.17
2019-03-27T12:15:02.627Z,14.27
2019-03-27T12:17:35.782Z,15.27
2019-03-27T12:20:09.039Z,15.20
2019-03-27T12:22:42.266Z,13.67
2019-03-27T12:25:15.438Z,14.03
2019-03-27T12:27:48.631Z,11.97
2019-03-27T12:30:21.816Z,16.27
2019-03-27T12:32:55.084Z,13.77
2019-03-27T12:35:28.250Z,9.87
2019-03-27T12:38:04.249Z,12.03
2019-03-27T12:40:36.840Z,10.63
2019-03-27T12:43:10.039Z,10.83
2019-03-27T12:45:43.395Z,12.50
2019-03-27T12:48:16.633Z,12.83
2019-03-27T12:50:49.802Z,8.37
2019-03-27T12:53:22.983Z,13.40
2019-03-27T12:55:56.153Z,11.37
2019-03-27T12:58:29.346Z,11.97
2019-03-27T13:01:02.540Z,11.47
2019-03-27T13:03:35.804Z,9.53
2019-03-27T13:06:08.995Z,8.53
2019-03-27T13:08:42.183Z,11.07
2019-03-27T13:11:15.398Z,13.20
2019-03-27T13:13:49.187Z,8.80
2019-03-27T13:16:24.183Z,9.53
2019-03-27T13:18:58.235Z,12.90
2019-03-27T13:21:31.405Z,11.00
2019-03-27T13:24:04.658Z,14.43
2019-03-27T13:26:37.854Z,11.23
2019-03-27T13:29:11.049Z,12.70
2019-03-27T13:31:44.250Z,14.17
2019-03-27T13:34:17.435Z,11.13
2019-03-27T13:36:50.678Z,14.97
2019-03-27T13:39:23.977Z,11.33
2019-03-27T13:41:57.194Z,12.23
2019-03-27T13:44:36.890Z,19.17
2019-03-27T13:47:05.374Z,16.90
2019-03-27T13:49:38.691Z,16.00
2019-03-27T13:52:11.886Z,12.57
2019-03-27T13:54:45.095Z,9.57
2019-03-27T13:57:18.273Z,10.83
2019-03-27T13:59:51.492Z,10.40
2019-03-27T14:02:24.672Z,12.90
2019-03-27T14:04:57.906Z,14.30
2019-03-27T14:07:31.215Z,14.13
2019-03-27T14:10:05.088Z,14.30
2019-03-27T14:12:38.257Z,13.70
2019-03-27T14:15:11.445Z,12.53
2019-03-27T14:17:44.627Z,16.03
2019-03-27T14:20:17.870Z,12.97
2019-03-27T14:22:51.050Z,13.57
2019-03-27T14:25:24.234Z,12.00
2019-03-27T14:27:57.423Z,11.87
2019-03-27T14:30:48.931Z,17.17
2019-03-27T14:33:22.108Z,13.07
2019-03-27T14:35:55.300Z,11.20
2019-03-27T14:38:28.560Z,14.50
2019-03-27T14:41:01.811Z,11.23
2019-03-27T14:43:34.981Z,14.03
2019-03-27T14:46:08.255Z,16.80
2019-03-27T14:48:41.454Z,10.93
2019-03-27T14:51:14.678Z,11.97
2019-03-27T14:53:47.855Z,14.30
2019-03-27T14:56:21.086Z,10.33
2019-03-27T14:58:54.265Z,14.33
2019-03-27T15:01:27.493Z,12.57
2019-03-27T15:04:00.719Z,16.93
2019-03-27T15:06:33.911Z,11.53
2019-03-27T15:09:07.631Z,15.17
2019-03-27T15:11:40.824Z,18.03
2019-03-27T15:14:14.025Z,13.70
2019-03-27T15:16:47.223Z,14.60
2019-03-27T15:19:20.754Z,14.70
2019-03-27T15:21:54.018Z,16.33
2019-03-27T15:24:27.218Z,12.67
2019-03-27T15:27:00.409Z,17.47
2019-03-27T15:29:33.577Z,13.00
2019-03-27T15:32:06.786Z,14.27
2019-03-27T15:34:40.041Z,13.77
2019-03-27T15:37:13.234Z,13.37
2019-03-27T15:39:46.495Z,16.60
2019-03-27T15:42:19.682Z,18.17
2019-03-27T15:44:52.896Z,12.63
2019-03-27T15:47:26.137Z,17.40
2019-03-27T15:49:59.405Z,15.70
2019-03-27T15:52:36.702Z,15.70
2019-03-27T15:55:08.866Z,19.13
2019-03-27T15:57:42.050Z,12.60
2019-03-27T16:00:15.337Z,14.50
2019-03-27T16:02:48.527Z,16.43
2019-03-27T16:05:22.409Z,17.70
2019-03-27T16:07:55.639Z,14.37
2019-03-27T16:10:28.814Z,14.83
2019-03-27T16:13:03.896Z,13.33
2019-03-27T16:15:37.965Z,12.67
2019-03-27T16:18:11.198Z,13.00
2019-03-27T16:20:44.365Z,14.03
2019-03-27T16:23:17.553Z,12.83
2019-03-27T16:25:50.792Z,13.10
2019-03-27T16:28:23.986Z,13.87
2019-03-27T16:30:57.210Z,14.77
2019-03-27T16:33:30.398Z,16.50
2019-03-27T16:36:03.686Z,13.60
2019-03-27T16:38:36.879Z,13.23
2019-03-27T16:41:10.057Z,10.13
2019-03-27T16:43:44.375Z,14.40
2019-03-27T16:46:17.719Z,13.30
2019-03-27T16:48:50.911Z,9.37
2019-03-27T16:51:24.185Z,14.90
2019-03-27T16:53:57.363Z,8.53
2019-03-27T16:56:30.634Z,12.03
2019-03-27T16:59:03.863Z,11.43
2019-03-27T17:01:37.081Z,11.37
2019-03-27T17:04:10.257Z,9.53
2019-03-27T17:06:43.466Z,11.93
2019-03-27T17:09:16.655Z,9.57
2019-03-27T17:11:49.873Z,13.53
2019-03-27T17:14:23.078Z,12.73
2019-03-27T17:16:56.267Z,12.63
2019-03-27T17:19:29.464Z,12.17
2019-03-27T17:22:02.674Z,11.43
2019-03-27T17:24:35.871Z,12.60
2019-03-27T17:27:09.052Z,13.10
2019-03-27T17:29:42.254Z,14.17
2019-03-27T17:32:15.528Z,14.73
2019-03-27T17:34:51.813Z,13.10
2019-03-27T17:37:23.627Z,13.57
2019-03-27T17:39:56.917Z,16.30
2019-03-27T17:42:30.090Z,10.77
2019-03-27T17:45:03.406Z,12.13
2019-03-27T17:47:36.582Z,11.50
2019-03-27T17:50:09.770Z,12.80
2019-03-27T17:52:43.011Z,11.43
2019-03-27T17:55:16.204Z,12.60
2019-03-27T17:57:49.368Z,14.20
2019-03-27T18:00:42.570Z,12.07
2019-03-27T18:03:15.764Z,14.20
2019-03-27T18:05:49.014Z,15.57
2019-03-27T18:08:22.200Z,17.40
2019-03-27T18:10:55.390Z,11.60
2019-03-27T18:13:28.564Z,17.07
2019-03-27T18:16:01.805Z,17.27
2019-03-27T18:18:35.038Z,17.03
2019-03-27T18:21:08.248Z,12.73
2019-03-27T18:23:46.279Z,15.77
2019-03-27T18:26:16.433Z,15.17
2019-03-27T18:28:49.617Z,15.47
2019-03-27T18:31:22.820Z,16.47
2019-03-27T18:33:55.989Z,19.33
2019-03-27T18:36:29.257Z,18.73
2019-03-27T18:39:02.438Z,17.83
2019-03-27T18:41:35.627Z,16.23
2019-03-27T18:44:08.924Z,17.93
2019-03-27T18:46:42.130Z,19.00
2019-03-27T18:49:15.327Z,16.10
2019-03-27T18:51:48.510Z,15.30
2019-03-27T18:54:23.557Z,16.47
2019-03-27T18:56:56.578Z,18.70
2019-03-27T18:59:31.373Z,14.57
2019-03-27T19:02:04.845Z,15.27
2019-03-27T19:04:37.990Z,17.33
2019-03-27T19:07:11.182Z,23.03
2019-03-27T19:09:44.357Z,19.97
2019-03-27T19:12:17.586Z,15.20
2019-03-27T19:14:50.769Z,19.17
2019-03-27T19:17:24.691Z,17.70
2019-03-27T19:19:57.931Z,16.40
2019-03-27T19:22:31.126Z,23.47
2019-03-27T19:25:04.870Z,18.37
2019-03-27T19:27:38.046Z,20.40
2019-03-27T19:30:11.223Z,21.77
2019-03-27T19:32:44.860Z,17.67
2019-03-27T19:35:18.113Z,20.50
2019-03-27T19:37:51.287Z,16.47
2019-03-27T19:40:25.389Z,16.07
2019-03-27T19:42:58.590Z,17.43
2019-03-27T19:45:31.841Z,21.20
2019-03-27T19:48:05.128Z,18.50
2019-03-27T19:50:38.352Z,15.07
2019-03-27T19:53:11.546Z,14.43
2019-03-27T19:55:44.728Z,16.27
2019-03-27T19:58:17.905Z,18.33
2019-03-27T20:00:51.071Z,21.17
2019-03-27T20:03:24.254Z,18.20
2019-03-27T20:05:57.440Z,19.00
2019-03-27T20:08:30.619Z,21.13
2019-03-27T20:11:03.809Z,21.80
2019-03-27T20:13:37.515Z,17.73
2019-03-27T20:16:10.688Z,21.73
2019-03-27T20:18:43.891Z,18.80
2019-03-27T20:21:17.079Z,19.03
2019-03-27T20:23:50.258Z,16.27
2019-03-27T20:26:23.471Z,17.90
2019-03-27T20:28:56.711Z,20.13
2019-03-27T20:31:30.266Z,16.87
2019-03-27T20:34:03.454Z,22.33
2019-03-27T20:36:36.654Z,18.07
2019-03-27T20:39:09.845Z,16.10
2019-03-27T20:41:43.021Z,16.53
2019-03-27T20:44:16.222Z,19.53
2019-03-27T20:46:49.512Z,20.13
2019-03-27T20:49:22.685Z,17.93
2019-03-27T20:51:57.059Z,19.13
2019-03-27T20:54:30.247Z,18.40
2019-03-27T20:57:03.452Z,21.10
2019-03-27T20:59:36.670Z,22.87
2019-03-27T21:02:09.858Z,20.73
2019-03-27T21:04:43.038Z,17.23
2019-03-27T21:07:16.213Z,21.80
2019-03-27T21:09:49.443Z,21.63
2019-03-27T21:12:22.736Z,22.10
2019-03-27T21:14:55.915Z,18.60
2019-03-27T21:17:29.102Z,17.40
2019-03-27T21:20:02.318Z,20.70
2019-03-27T21:22:35.506Z,19.47
2019-03-27T21:25:09.776Z,23.53
2019-03-27T21:27:43.236Z,19.73
2019-03-27T21:30:16.424Z,17.73
2019-03-27T21:32:49.595Z,17.43
2019-03-27T21:35:22.785Z,21.93
2019-03-27T21:37:55.958Z,20.07
2019-03-27T21:40:29.148Z,19.40
2019-03-27T21:43:02.329Z,25.93
2019-03-27T21:45:35.507Z,16.87
2019-03-27T21:48:08.689Z,18.93
2019-03-27T21:50:41.949Z,17.33
2019-03-27T21:53:15.156Z,21.33
2019-03-27T21:55:48.338Z,24.10
2019-03-27T21:58:21.535Z,21.37
2019-03-27T22:00:54.767Z,22.93
2019-03-27T22:03:27.973Z,24.00
2019-03-27T22:06:01.163Z,25.33
2019-03-27T22:08:34.379Z,22.87
2019-03-27T22:11:07.621Z,23.80
2019-03-27T22:13:40.817Z,17.40
2019-03-27T22:16:14.001Z,22.17
2019-03-27T22:18:47.169Z,20.47
2019-03-27T22:21:20.354Z,22.83
2019-03-27T22:23:53.561Z,21.40
2019-03-27T22:26:26.754Z,18.57
2019-03-27T22:28:59.947Z,18.77
2019-03-27T22:31:33.131Z,21.43
2019-03-27T22:34:06.306Z,22.93
2019-03-27T22:36:39.486Z,19.13
2019-03-27T22:39:12.657Z,20.27
2019-03-27T22:41:45.843Z,20.83
2019-03-27T22:44:19.115Z,18.73
2019-03-27T22:46:52.293Z,21.40
2019-03-27T22:49:25.472Z,24.23
2019-03-27T22:51:58.653Z,16.30
2019-03-27T22:54:31.850Z,21.90
2019-03-27T22:57:05.044Z,25.83
2019-03-27T22:59:38.222Z,23.63
2019-03-27T23:02:11.429Z,20.60
2019-03-27T23:04:44.611Z,21.23
2019-03-27T23:07:17.802Z,21.70
2019-03-27T23:09:50.970Z,21.67
2019-03-27T23:12:24.158Z,20.73
2019-03-27T23:14:57.329Z,20.43
2019-03-27T23:17:30.502Z,26.17
2019-03-27T23:20:04.868Z,25.17
2019-03-27T23:22:38.053Z,26.67
2019-03-27T23:25:11.234Z,24.13
2019-03-27T23:27:44.410Z,22.27
2019-03-27T23:30:17.561Z,25.57
2019-03-27T23:32:50.738Z,21.33
2019-03-27T23:35:23.902Z,20.97
2019-03-27T23:37:57.101Z,22.77
2019-03-27T23:40:30.278Z,22.57
2019-03-27T23:43:03.482Z,21.70
2019-03-27T23:45:36.654Z,26.00
2019-03-27T23:48:09.841Z,23.30
2019-03-27T23:50:43.036Z,22.07
2019-03-27T23:53:16.314Z,19.83
2019-03-27T23:55:49.502Z,21.20
2019-03-27T23:58:22.720Z,23.30
